Huvudsida
METAR-TAF:

METAR-TAF

Flygplatser :

Sions flygplats

Sion, Schweiz

latitud: 46-13N, longitud: 007-20E, höjd: 482 m

Aktuellt väderrapport

Denna rapport gjordes för 20 minuter sedan, klockan 11:50 UTC
Vind 3 kt varierande vindriktning
Temperatur 21°C
Fuktighet 60%
Tryck 1015 hPa
Sikt 10 km eller mer
Få moln på en höjd av 5000 ft
Spridda moln på en höjd av 8000 ft
Brutna moln på en höjd av 13000 ft

METAR: LSGS 201150Z VRB03KT 9999 FEW050 SCT080 BKN130 21/13 Q1015

Tid: 14:10 (12:10 UTC)

Väderprognos

Denna rapport gjordes för 45 minuter sedan, klockan 11:25 UTC
Prognos gäller från 20 kl. 12 UTC till 20 kl. 21 UTC
Vind 3 kt varierande vindriktning
Sikt 10 km eller mer
Få moln på en höjd av 5000 ft
Spridda moln på en höjd av 8000 ft
Blir
från 20 kl. 12 UTC till 20 kl. 14 UTC
Vind 15 kt från väst/sydväst
Blir
från 20 kl. 18 UTC till 20 kl. 20 UTC
Vind 3 kt varierande vindriktning

TAF: LSGS 201125Z 2012/2021 VRB03KT 9999 FEW050 SCT080 BECMG 2012/2014 25015KT BECMG 2018/2020 VRB03KT

Aktuella väderrapporter och prognoser från 4000 flygplatser (METAR- och TAF-rapporter).

De tillgängliga stationerna syns som gula och röda prickar på kartan.

För musen över prickarna för att se namnen på stationerna.

Klicka sedan för att få väderrapporter och prognoser.

För att ändra kartan: Klicka på de gröna knapparna med ett svart kors på för att zooma in; den gröna knappen med ett streck på för att zooma ut; eller på de gröna pilarna för angränsande kartor.


METAR-TAF: